sensor_id;sensor_type;location;lat;lon;timestamp;P1;durP1;ratioP1;P2;durP2;ratioP2
74939;SDS011;63505;45.226;37.908;2022-11-09T00:00:38;31.85;;;11.18;;
74939;SDS011;63505;45.226;37.908;2022-11-09T00:03:05;24.30;;;10.68;;
74939;SDS011;63505;45.226;37.908;2022-11-09T00:05:31;30.40;;;12.55;;
74939;SDS011;63505;45.226;37.908;2022-11-09T00:07:57;40.03;;;12.48;;
74939;SDS011;63505;45.226;37.908;2022-11-09T00:10:23;28.40;;;9.05;;
74939;SDS011;63505;45.226;37.908;2022-11-09T00:12:49;19.38;;;9.15;;
74939;SDS011;63505;45.226;37.908;2022-11-09T00:15:15;20.58;;;10.45;;
74939;SDS011;63505;45.226;37.908;2022-11-09T00:17:41;31.98;;;11.15;;
74939;SDS011;63505;45.226;37.908;2022-11-09T00:20:07;20.73;;;8.38;;
74939;SDS011;63505;45.226;37.908;2022-11-09T00:22:33;22.60;;;10.35;;
74939;SDS011;63505;45.226;37.908;2022-11-09T00:24:59;30.98;;;9.40;;
74939;SDS011;63505;45.226;37.908;2022-11-09T00:27:25;24.60;;;9.57;;
74939;SDS011;63505;45.226;37.908;2022-11-09T00:29:52;23.05;;;9.90;;
74939;SDS011;63505;45.226;37.908;2022-11-09T00:32:18;16.67;;;8.25;;
74939;SDS011;63505;45.226;37.908;2022-11-09T00:34:44;20.23;;;9.25;;
74939;SDS011;63505;45.226;37.908;2022-11-09T00:37:10;21.80;;;9.00;;
74939;SDS011;63505;45.226;37.908;2022-11-09T00:39:37;24.50;;;8.60;;
74939;SDS011;63505;45.226;37.908;2022-11-09T00:42:02;23.58;;;11.07;;
74939;SDS011;63505;45.226;37.908;2022-11-09T00:44:28;18.52;;;8.68;;
74939;SDS011;63505;45.226;37.908;2022-11-09T00:46:54;17.17;;;7.43;;
74939;SDS011;63505;45.226;37.908;2022-11-09T00:49:20;22.80;;;10.95;;
74939;SDS011;63505;45.226;37.908;2022-11-09T00:51:46;21.17;;;8.98;;
74939;SDS011;63505;45.226;37.908;2022-11-09T00:54:12;17.13;;;9.32;;
74939;SDS011;63505;45.226;37.908;2022-11-09T00:56:38;16.55;;;9.13;;
74939;SDS011;63505;45.226;37.908;2022-11-09T00:59:05;22.88;;;10.20;;
74939;SDS011;63505;45.226;37.908;2022-11-09T01:01:31;17.17;;;8.73;;
74939;SDS011;63505;45.226;37.908;2022-11-09T01:03:57;14.57;;;7.90;;
74939;SDS011;63505;45.226;37.908;2022-11-09T01:06:24;13.70;;;6.70;;
74939;SDS011;63505;45.226;37.908;2022-11-09T01:08:50;17.58;;;8.40;;
74939;SDS011;63505;45.226;37.908;2022-11-09T01:11:17;13.55;;;7.00;;
74939;SDS011;63505;45.226;37.908;2022-11-09T01:13:45;13.40;;;6.65;;
74939;SDS011;63505;45.226;37.908;2022-11-09T01:16:12;16.38;;;6.80;;
74939;SDS011;63505;45.226;37.908;2022-11-09T01:18:41;14.73;;;6.85;;
74939;SDS011;63505;45.226;37.908;2022-11-09T01:21:09;13.13;;;6.57;;
74939;SDS011;63505;45.226;37.908;2022-11-09T01:23:37;16.92;;;7.70;;
74939;SDS011;63505;45.226;37.908;2022-11-09T01:26:06;13.43;;;7.85;;
74939;SDS011;63505;45.226;37.908;2022-11-09T01:28:33;13.60;;;7.05;;
74939;SDS011;63505;45.226;37.908;2022-11-09T01:33:32;15.93;;;6.53;;
74939;SDS011;63505;45.226;37.908;2022-11-09T01:36:01;16.83;;;7.45;;
74939;SDS011;63505;45.226;37.908;2022-11-09T01:38:31;15.50;;;8.30;;
74939;SDS011;63505;45.226;37.908;2022-11-09T01:40:59;14.70;;;7.72;;
74939;SDS011;63505;45.226;37.908;2022-11-09T01:43:25;16.20;;;7.18;;
74939;SDS011;63505;45.226;37.908;2022-11-09T01:45:56;15.20;;;7.65;;
74939;SDS011;63505;45.226;37.908;2022-11-09T01:48:39;12.98;;;6.75;;
74939;SDS011;63505;45.226;37.908;2022-11-09T01:51:07;13.73;;;7.40;;
74939;SDS011;63505;45.226;37.908;2022-11-09T01:53:37;15.32;;;7.95;;
74939;SDS011;63505;45.226;37.908;2022-11-09T01:56:08;13.57;;;6.75;;
74939;SDS011;63505;45.226;37.908;2022-11-09T02:01:14;14.32;;;6.63;;
74939;SDS011;63505;45.226;37.908;2022-11-09T02:03:48;12.85;;;7.25;;
74939;SDS011;63505;45.226;37.908;2022-11-09T02:06:23;14.68;;;7.18;;
74939;SDS011;63505;45.226;37.908;2022-11-09T02:11:20;15.40;;;7.07;;
74939;SDS011;63505;45.226;37.908;2022-11-09T02:13:50;11.07;;;6.20;;
74939;SDS011;63505;45.226;37.908;2022-11-09T02:16:20;14.18;;;6.80;;
74939;SDS011;63505;45.226;37.908;2022-11-09T02:18:49;12.05;;;6.55;;
74939;SDS011;63505;45.226;37.908;2022-11-09T02:21:18;14.95;;;7.22;;
74939;SDS011;63505;45.226;37.908;2022-11-09T02:23:46;13.55;;;6.32;;
74939;SDS011;63505;45.226;37.908;2022-11-09T02:26:18;12.73;;;5.60;;
74939;SDS011;63505;45.226;37.908;2022-11-09T02:28:50;12.77;;;6.32;;
74939;SDS011;63505;45.226;37.908;2022-11-09T02:31:18;10.32;;;5.82;;
74939;SDS011;63505;45.226;37.908;2022-11-09T02:38:41;11.43;;;5.88;;
74939;SDS011;63505;45.226;37.908;2022-11-09T02:41:08;13.10;;;6.95;;
74939;SDS011;63505;45.226;37.908;2022-11-09T02:43:36;14.38;;;6.43;;
74939;SDS011;63505;45.226;37.908;2022-11-09T02:46:02;13.43;;;6.30;;
74939;SDS011;63505;45.226;37.908;2022-11-09T02:48:28;12.20;;;6.32;;
74939;SDS011;63505;45.226;37.908;2022-11-09T02:50:56;16.50;;;7.10;;
74939;SDS011;63505;45.226;37.908;2022-11-09T02:53:21;13.15;;;6.45;;
74939;SDS011;63505;45.226;37.908;2022-11-09T02:55:48;12.75;;;6.35;;
74939;SDS011;63505;45.226;37.908;2022-11-09T02:58:15;14.02;;;6.25;;
74939;SDS011;63505;45.226;37.908;2022-11-09T03:00:42;17.98;;;7.00;;
74939;SDS011;63505;45.226;37.908;2022-11-09T03:03:10;11.93;;;6.32;;
74939;SDS011;63505;45.226;37.908;2022-11-09T03:05:36;16.63;;;6.60;;
74939;SDS011;63505;45.226;37.908;2022-11-09T03:08:02;14.90;;;6.80;;
74939;SDS011;63505;45.226;37.908;2022-11-09T03:10:32;15.27;;;7.32;;
74939;SDS011;63505;45.226;37.908;2022-11-09T03:12:59;11.20;;;5.43;;
74939;SDS011;63505;45.226;37.908;2022-11-09T03:15:25;14.10;;;5.82;;
74939;SDS011;63505;45.226;37.908;2022-11-09T03:17:51;10.77;;;5.53;;
74939;SDS011;63505;45.226;37.908;2022-11-09T03:20:19;14.50;;;5.22;;
74939;SDS011;63505;45.226;37.908;2022-11-09T03:22:46;17.00;;;7.80;;
74939;SDS011;63505;45.226;37.908;2022-11-09T03:25:13;12.65;;;5.50;;
74939;SDS011;63505;45.226;37.908;2022-11-09T03:27:39;14.93;;;6.32;;
74939;SDS011;63505;45.226;37.908;2022-11-09T03:30:06;12.55;;;6.10;;
74939;SDS011;63505;45.226;37.908;2022-11-09T03:32:33;15.32;;;7.30;;
74939;SDS011;63505;45.226;37.908;2022-11-09T03:34:59;13.13;;;6.25;;
74939;SDS011;63505;45.226;37.908;2022-11-09T03:37:26;10.77;;;5.32;;
74939;SDS011;63505;45.226;37.908;2022-11-09T03:39:52;12.75;;;5.90;;
74939;SDS011;63505;45.226;37.908;2022-11-09T03:42:18;12.65;;;6.13;;
74939;SDS011;63505;45.226;37.908;2022-11-09T03:44:44;12.90;;;5.50;;
74939;SDS011;63505;45.226;37.908;2022-11-09T03:47:10;18.83;;;6.68;;
74939;SDS011;63505;45.226;37.908;2022-11-09T03:49:36;13.45;;;6.72;;
74939;SDS011;63505;45.226;37.908;2022-11-09T03:52:01;15.40;;;7.03;;
74939;SDS011;63505;45.226;37.908;2022-11-09T03:54:27;16.60;;;6.60;;
74939;SDS011;63505;45.226;37.908;2022-11-09T03:56:53;17.80;;;7.05;;
74939;SDS011;63505;45.226;37.908;2022-11-09T03:59:19;14.60;;;6.63;;
74939;SDS011;63505;45.226;37.908;2022-11-09T04:01:45;15.57;;;6.85;;
74939;SDS011;63505;45.226;37.908;2022-11-09T04:04:12;12.43;;;6.43;;
74939;SDS011;63505;45.226;37.908;2022-11-09T04:06:38;16.00;;;7.47;;
74939;SDS011;63505;45.226;37.908;2022-11-09T04:09:04;14.50;;;7.25;;
74939;SDS011;63505;45.226;37.908;2022-11-09T04:11:29;12.88;;;6.47;;
74939;SDS011;63505;45.226;37.908;2022-11-09T04:13:56;12.68;;;6.35;;
74939;SDS011;63505;45.226;37.908;2022-11-09T04:16:22;18.15;;;7.00;;
74939;SDS011;63505;45.226;37.908;2022-11-09T04:18:48;19.98;;;7.20;;
74939;SDS011;63505;45.226;37.908;2022-11-09T04:21:14;14.00;;;6.78;;
74939;SDS011;63505;45.226;37.908;2022-11-09T04:23:40;18.92;;;8.15;;
74939;SDS011;63505;45.226;37.908;2022-11-09T04:26:05;13.38;;;6.65;;
74939;SDS011;63505;45.226;37.908;2022-11-09T04:28:31;15.07;;;5.65;;
74939;SDS011;63505;45.226;37.908;2022-11-09T04:31:00;13.23;;;5.55;;
74939;SDS011;63505;45.226;37.908;2022-11-09T04:33:27;12.45;;;6.47;;
74939;SDS011;63505;45.226;37.908;2022-11-09T04:35:53;13.88;;;6.70;;
74939;SDS011;63505;45.226;37.908;2022-11-09T04:38:19;14.10;;;6.75;;
74939;SDS011;63505;45.226;37.908;2022-11-09T04:40:45;11.88;;;6.05;;
74939;SDS011;63505;45.226;37.908;2022-11-09T04:43:12;12.25;;;6.30;;
74939;SDS011;63505;45.226;37.908;2022-11-09T04:45:40;12.48;;;5.95;;
74939;SDS011;63505;45.226;37.908;2022-11-09T04:48:06;13.75;;;6.70;;
74939;SDS011;63505;45.226;37.908;2022-11-09T04:50:35;14.48;;;6.18;;
74939;SDS011;63505;45.226;37.908;2022-11-09T04:53:05;14.82;;;6.38;;
74939;SDS011;63505;45.226;37.908;2022-11-09T04:55:36;16.63;;;7.30;;
74939;SDS011;63505;45.226;37.908;2022-11-09T04:58:03;12.02;;;6.68;;
74939;SDS011;63505;45.226;37.908;2022-11-09T05:00:29;15.00;;;7.05;;
74939;SDS011;63505;45.226;37.908;2022-11-09T05:03:02;13.32;;;6.32;;
74939;SDS011;63505;45.226;37.908;2022-11-09T05:05:29;14.30;;;7.15;;
74939;SDS011;63505;45.226;37.908;2022-11-09T05:07:57;13.85;;;6.45;;
74939;SDS011;63505;45.226;37.908;2022-11-09T05:10:23;13.98;;;6.30;;
74939;SDS011;63505;45.226;37.908;2022-11-09T05:12:49;14.60;;;6.88;;
74939;SDS011;63505;45.226;37.908;2022-11-09T05:15:21;15.68;;;7.00;;
74939;SDS011;63505;45.226;37.908;2022-11-09T05:17:47;16.27;;;6.55;;
74939;SDS011;63505;45.226;37.908;2022-11-09T05:20:13;16.42;;;7.05;;
74939;SDS011;63505;45.226;37.908;2022-11-09T05:22:39;18.25;;;6.57;;
74939;SDS011;63505;45.226;37.908;2022-11-09T05:25:24;15.02;;;7.90;;
74939;SDS011;63505;45.226;37.908;2022-11-09T05:27:50;13.88;;;6.75;;
74939;SDS011;63505;45.226;37.908;2022-11-09T05:30:17;14.30;;;6.53;;
74939;SDS011;63505;45.226;37.908;2022-11-09T05:32:43;9.50;;;4.82;;
74939;SDS011;63505;45.226;37.908;2022-11-09T05:35:09;15.05;;;6.57;;
74939;SDS011;63505;45.226;37.908;2022-11-09T05:37:36;16.98;;;7.57;;
74939;SDS011;63505;45.226;37.908;2022-11-09T05:40:03;13.45;;;6.18;;
74939;SDS011;63505;45.226;37.908;2022-11-09T05:42:30;16.60;;;7.43;;
74939;SDS011;63505;45.226;37.908;2022-11-09T05:44:56;15.23;;;6.13;;
74939;SDS011;63505;45.226;37.908;2022-11-09T05:47:22;13.30;;;6.40;;
74939;SDS011;63505;45.226;37.908;2022-11-09T05:49:48;15.93;;;7.03;;
74939;SDS011;63505;45.226;37.908;2022-11-09T05:52:14;18.30;;;7.90;;
74939;SDS011;63505;45.226;37.908;2022-11-09T05:54:40;13.10;;;6.78;;
74939;SDS011;63505;45.226;37.908;2022-11-09T05:57:06;14.82;;;7.35;;
74939;SDS011;63505;45.226;37.908;2022-11-09T05:59:32;17.58;;;6.35;;
74939;SDS011;63505;45.226;37.908;2022-11-09T06:01:58;16.33;;;7.50;;
74939;SDS011;63505;45.226;37.908;2022-11-09T06:04:24;14.70;;;6.60;;
74939;SDS011;63505;45.226;37.908;2022-11-09T06:06:50;12.70;;;6.85;;
74939;SDS011;63505;45.226;37.908;2022-11-09T06:09:16;14.23;;;6.30;;
74939;SDS011;63505;45.226;37.908;2022-11-09T06:11:42;12.65;;;5.90;;
74939;SDS011;63505;45.226;37.908;2022-11-09T06:14:08;12.80;;;6.43;;
74939;SDS011;63505;45.226;37.908;2022-11-09T06:16:33;11.00;;;5.68;;
74939;SDS011;63505;45.226;37.908;2022-11-09T06:19:01;18.40;;;7.88;;
74939;SDS011;63505;45.226;37.908;2022-11-09T06:21:27;19.23;;;8.32;;
74939;SDS011;63505;45.226;37.908;2022-11-09T06:23:53;17.45;;;8.65;;
74939;SDS011;63505;45.226;37.908;2022-11-09T06:26:18;17.98;;;9.00;;
74939;SDS011;63505;45.226;37.908;2022-11-09T06:28:45;22.40;;;9.10;;
74939;SDS011;63505;45.226;37.908;2022-11-09T06:31:12;22.00;;;8.40;;
74939;SDS011;63505;45.226;37.908;2022-11-09T06:33:38;15.30;;;8.40;;
74939;SDS011;63505;45.226;37.908;2022-11-09T06:36:04;19.95;;;9.18;;
74939;SDS011;63505;45.226;37.908;2022-11-09T06:38:31;18.88;;;8.98;;
74939;SDS011;63505;45.226;37.908;2022-11-09T06:40:57;19.20;;;8.68;;
74939;SDS011;63505;45.226;37.908;2022-11-09T06:43:25;16.85;;;9.25;;
74939;SDS011;63505;45.226;37.908;2022-11-09T06:45:51;25.17;;;9.63;;
74939;SDS011;63505;45.226;37.908;2022-11-09T06:48:18;17.23;;;8.25;;
74939;SDS011;63505;45.226;37.908;2022-11-09T06:50:45;21.58;;;10.25;;
74939;SDS011;63505;45.226;37.908;2022-11-09T06:53:12;19.42;;;9.18;;
74939;SDS011;63505;45.226;37.908;2022-11-09T06:58:10;16.85;;;7.97;;
74939;SDS011;63505;45.226;37.908;2022-11-09T07:00:41;18.75;;;8.70;;
74939;SDS011;63505;45.226;37.908;2022-11-09T07:03:09;20.52;;;10.10;;
74939;SDS011;63505;45.226;37.908;2022-11-09T07:05:39;25.38;;;11.55;;
74939;SDS011;63505;45.226;37.908;2022-11-09T07:08:05;19.83;;;10.90;;
74939;SDS011;63505;45.226;37.908;2022-11-09T07:10:31;22.88;;;9.90;;
74939;SDS011;63505;45.226;37.908;2022-11-09T07:12:57;17.70;;;9.30;;
74939;SDS011;63505;45.226;37.908;2022-11-09T07:15:23;22.50;;;11.10;;
74939;SDS011;63505;45.226;37.908;2022-11-09T07:17:50;18.90;;;10.00;;
74939;SDS011;63505;45.226;37.908;2022-11-09T07:20:15;20.90;;;10.02;;
74939;SDS011;63505;45.226;37.908;2022-11-09T07:22:41;25.27;;;11.05;;
74939;SDS011;63505;45.226;37.908;2022-11-09T07:25:10;21.13;;;10.48;;
74939;SDS011;63505;45.226;37.908;2022-11-09T07:27:36;19.80;;;10.20;;
74939;SDS011;63505;45.226;37.908;2022-11-09T07:30:03;22.80;;;10.90;;
74939;SDS011;63505;45.226;37.908;2022-11-09T08:31:30;23.20;;;12.32;;
74939;SDS011;63505;45.226;37.908;2022-11-09T08:33:56;19.58;;;10.23;;
74939;SDS011;63505;45.226;37.908;2022-11-09T08:36:22;23.00;;;11.00;;
74939;SDS011;63505;45.226;37.908;2022-11-09T08:38:50;21.60;;;10.73;;
74939;SDS011;63505;45.226;37.908;2022-11-09T08:41:16;18.85;;;8.40;;
74939;SDS011;63505;45.226;37.908;2022-11-09T08:43:42;16.10;;;8.48;;
74939;SDS011;63505;45.226;37.908;2022-11-09T08:46:08;22.10;;;10.88;;
74939;SDS011;63505;45.226;37.908;2022-11-09T08:48:34;18.13;;;9.95;;
74939;SDS011;63505;45.226;37.908;2022-11-09T08:50:59;24.75;;;8.98;;
74939;SDS011;63505;45.226;37.908;2022-11-09T08:53:26;15.90;;;7.05;;
74939;SDS011;63505;45.226;37.908;2022-11-09T08:55:53;16.70;;;8.13;;
74939;SDS011;63505;45.226;37.908;2022-11-09T08:58:19;21.70;;;9.82;;
74939;SDS011;63505;45.226;37.908;2022-11-09T09:00:45;24.02;;;9.65;;
74939;SDS011;63505;45.226;37.908;2022-11-09T09:03:12;25.80;;;9.65;;
74939;SDS011;63505;45.226;37.908;2022-11-09T09:05:38;25.35;;;11.40;;
74939;SDS011;63505;45.226;37.908;2022-11-09T09:08:04;20.23;;;9.90;;
74939;SDS011;63505;45.226;37.908;2022-11-09T09:10:31;22.33;;;11.02;;
74939;SDS011;63505;45.226;37.908;2022-11-09T09:13:00;21.58;;;10.45;;
74939;SDS011;63505;45.226;37.908;2022-11-09T09:15:27;27.80;;;12.38;;
74939;SDS011;63505;45.226;37.908;2022-11-09T09:17:53;22.10;;;11.07;;
74939;SDS011;63505;45.226;37.908;2022-11-09T09:20:19;18.13;;;10.25;;
74939;SDS011;63505;45.226;37.908;2022-11-09T09:22:45;19.92;;;10.50;;
74939;SDS011;63505;45.226;37.908;2022-11-09T09:25:11;23.95;;;11.30;;
74939;SDS011;63505;45.226;37.908;2022-11-09T09:27:37;21.58;;;11.07;;
74939;SDS011;63505;45.226;37.908;2022-11-09T09:30:03;21.45;;;9.75;;
74939;SDS011;63505;45.226;37.908;2022-11-09T09:32:30;19.55;;;10.13;;
74939;SDS011;63505;45.226;37.908;2022-11-09T09:34:56;20.58;;;10.50;;
74939;SDS011;63505;45.226;37.908;2022-11-09T09:37:22;24.33;;;12.10;;
74939;SDS011;63505;45.226;37.908;2022-11-09T09:39:49;20.27;;;10.23;;
74939;SDS011;63505;45.226;37.908;2022-11-09T09:42:16;19.35;;;10.55;;
74939;SDS011;63505;45.226;37.908;2022-11-09T09:44:50;19.73;;;9.43;;
74939;SDS011;63505;45.226;37.908;2022-11-09T09:47:28;18.60;;;10.32;;
74939;SDS011;63505;45.226;37.908;2022-11-09T09:50:07;21.33;;;10.90;;
74939;SDS011;63505;45.226;37.908;2022-11-09T09:52:39;16.50;;;9.45;;
74939;SDS011;63505;45.226;37.908;2022-11-09T09:57:36;21.00;;;9.18;;
74939;SDS011;63505;45.226;37.908;2022-11-09T10:00:05;17.83;;;8.73;;
74939;SDS011;63505;45.226;37.908;2022-11-09T10:02:37;18.38;;;10.18;;
74939;SDS011;63505;45.226;37.908;2022-11-09T10:05:08;25.83;;;13.38;;
74939;SDS011;63505;45.226;37.908;2022-11-09T10:07:40;17.90;;;10.32;;
74939;SDS011;63505;45.226;37.908;2022-11-09T10:13:27;19.25;;;9.85;;
74939;SDS011;63505;45.226;37.908;2022-11-09T10:16:16;21.13;;;9.13;;
74939;SDS011;63505;45.226;37.908;2022-11-09T10:22:10;20.95;;;9.95;;
74939;SDS011;63505;45.226;37.908;2022-11-09T10:27:51;22.05;;;10.27;;
74939;SDS011;63505;45.226;37.908;2022-11-09T10:30:25;25.27;;;11.20;;
74939;SDS011;63505;45.226;37.908;2022-11-09T10:32:54;23.75;;;10.50;;
74939;SDS011;63505;45.226;37.908;2022-11-09T10:35:33;23.60;;;11.00;;
74939;SDS011;63505;45.226;37.908;2022-11-09T10:38:02;20.30;;;10.02;;
74939;SDS011;63505;45.226;37.908;2022-11-09T10:43:28;23.88;;;10.77;;
74939;SDS011;63505;45.226;37.908;2022-11-09T10:46:12;21.20;;;11.30;;
74939;SDS011;63505;45.226;37.908;2022-11-09T10:49:07;17.90;;;10.27;;
74939;SDS011;63505;45.226;37.908;2022-11-09T10:52:05;18.85;;;9.75;;
74939;SDS011;63505;45.226;37.908;2022-11-09T10:55:27;19.75;;;10.75;;
74939;SDS011;63505;45.226;37.908;2022-11-09T10:58:57;21.13;;;11.43;;
74939;SDS011;63505;45.226;37.908;2022-11-09T11:01:18;22.02;;;10.45;;
74939;SDS011;63505;45.226;37.908;2022-11-09T11:04:21;22.77;;;11.43;;
74939;SDS011;63505;45.226;37.908;2022-11-09T11:07:14;18.67;;;10.15;;
74939;SDS011;63505;45.226;37.908;2022-11-09T11:15:44;22.48;;;11.23;;
74939;SDS011;63505;45.226;37.908;2022-11-09T11:18:30;19.77;;;10.65;;
74939;SDS011;63505;45.226;37.908;2022-11-09T11:21:19;22.00;;;11.07;;
74939;SDS011;63505;45.226;37.908;2022-11-09T11:27:09;18.00;;;10.07;;
74939;SDS011;63505;45.226;37.908;2022-11-09T11:32:58;20.38;;;10.45;;
74939;SDS011;63505;45.226;37.908;2022-11-09T11:35:44;19.02;;;9.55;;
74939;SDS011;63505;45.226;37.908;2022-11-09T11:48:23;22.33;;;9.52;;
74939;SDS011;63505;45.226;37.908;2022-11-09T11:51:15;20.48;;;9.82;;
74939;SDS011;63505;45.226;37.908;2022-11-09T12:00:30;18.05;;;9.80;;
74939;SDS011;63505;45.226;37.908;2022-11-09T12:09:48;20.40;;;10.38;;
74939;SDS011;63505;45.226;37.908;2022-11-09T12:16:20;21.33;;;9.48;;
74939;SDS011;63505;45.226;37.908;2022-11-09T12:22:22;20.45;;;11.13;;
74939;SDS011;63505;45.226;37.908;2022-11-09T12:25:35;30.80;;;11.90;;
74939;SDS011;63505;45.226;37.908;2022-11-09T12:34:52;21.58;;;11.48;;
74939;SDS011;63505;45.226;37.908;2022-11-09T12:37:59;27.30;;;12.18;;
74939;SDS011;63505;45.226;37.908;2022-11-09T12:40:56;24.05;;;12.50;;
74939;SDS011;63505;45.226;37.908;2022-11-09T12:43:54;24.85;;;11.73;;
74939;SDS011;63505;45.226;37.908;2022-11-09T12:46:47;27.30;;;13.02;;
74939;SDS011;63505;45.226;37.908;2022-11-09T12:49:38;26.38;;;12.55;;
74939;SDS011;63505;45.226;37.908;2022-11-09T12:52:25;22.38;;;12.77;;
74939;SDS011;63505;45.226;37.908;2022-11-09T12:55:12;29.67;;;12.88;;
74939;SDS011;63505;45.226;37.908;2022-11-09T12:57:59;24.33;;;12.20;;
74939;SDS011;63505;45.226;37.908;2022-11-09T13:00:44;24.77;;;13.70;;
74939;SDS011;63505;45.226;37.908;2022-11-09T13:03:31;29.60;;;15.23;;
74939;SDS011;63505;45.226;37.908;2022-11-09T13:06:24;28.63;;;15.77;;
74939;SDS011;63505;45.226;37.908;2022-11-09T13:11:58;26.25;;;13.50;;
74939;SDS011;63505;45.226;37.908;2022-11-09T13:15:20;30.95;;;15.32;;
74939;SDS011;63505;45.226;37.908;2022-11-09T13:18:22;30.95;;;14.52;;
74939;SDS011;63505;45.226;37.908;2022-11-09T13:42:22;31.38;;;14.18;;
74939;SDS011;63505;45.226;37.908;2022-11-09T13:45:27;31.00;;;16.05;;
74939;SDS011;63505;45.226;37.908;2022-11-09T13:48:45;35.08;;;16.20;;
74939;SDS011;63505;45.226;37.908;2022-11-09T13:54:27;33.63;;;16.67;;
74939;SDS011;63505;45.226;37.908;2022-11-09T13:57:18;35.47;;;18.08;;
74939;SDS011;63505;45.226;37.908;2022-11-09T14:00:05;32.50;;;16.73;;
74939;SDS011;63505;45.226;37.908;2022-11-09T14:05:47;33.25;;;18.52;;
74939;SDS011;63505;45.226;37.908;2022-11-09T14:08:37;38.88;;;19.35;;
74939;SDS011;63505;45.226;37.908;2022-11-09T14:18:04;33.42;;;17.00;;
74939;SDS011;63505;45.226;37.908;2022-11-09T14:21:06;35.30;;;17.92;;
74939;SDS011;63505;45.226;37.908;2022-11-09T14:24:16;35.80;;;18.05;;
74939;SDS011;63505;45.226;37.908;2022-11-09T14:27:17;53.17;;;26.48;;
74939;SDS011;63505;45.226;37.908;2022-11-09T14:30:13;77.82;;;34.85;;
74939;SDS011;63505;45.226;37.908;2022-11-09T14:33:23;59.42;;;27.50;;
74939;SDS011;63505;45.226;37.908;2022-11-09T14:36:09;70.90;;;30.30;;
74939;SDS011;63505;45.226;37.908;2022-11-09T14:38:55;76.18;;;37.50;;
74939;SDS011;63505;45.226;37.908;2022-11-09T14:41:42;86.50;;;39.30;;
74939;SDS011;63505;45.226;37.908;2022-11-09T14:44:28;101.72;;;46.00;;
74939;SDS011;63505;45.226;37.908;2022-11-09T14:47:26;73.43;;;36.47;;
74939;SDS011;63505;45.226;37.908;2022-11-09T14:50:21;67.90;;;29.45;;
74939;SDS011;63505;45.226;37.908;2022-11-09T14:53:12;62.20;;;29.15;;
74939;SDS011;63505;45.226;37.908;2022-11-09T14:56:02;59.22;;;28.85;;
74939;SDS011;63505;45.226;37.908;2022-11-09T14:58:49;60.80;;;28.85;;
74939;SDS011;63505;45.226;37.908;2022-11-09T15:01:35;64.80;;;31.58;;
74939;SDS011;63505;45.226;37.908;2022-11-09T15:04:19;71.90;;;31.25;;
74939;SDS011;63505;45.226;37.908;2022-11-09T15:07:05;70.00;;;33.92;;
74939;SDS011;63505;45.226;37.908;2022-11-09T15:10:07;73.78;;;33.88;;
74939;SDS011;63505;45.226;37.908;2022-11-09T15:13:01;86.80;;;36.00;;
74939;SDS011;63505;45.226;37.908;2022-11-09T15:15:50;86.22;;;39.45;;
74939;SDS011;63505;45.226;37.908;2022-11-09T15:18:40;91.68;;;42.95;;
74939;SDS011;63505;45.226;37.908;2022-11-09T15:21:35;99.43;;;46.42;;
74939;SDS011;63505;45.226;37.908;2022-11-09T15:24:21;88.20;;;40.92;;
74939;SDS011;63505;45.226;37.908;2022-11-09T15:27:28;81.88;;;39.67;;
74939;SDS011;63505;45.226;37.908;2022-11-09T15:30:31;88.90;;;36.33;;
74939;SDS011;63505;45.226;37.908;2022-11-09T15:33:21;77.55;;;34.97;;
74939;SDS011;63505;45.226;37.908;2022-11-09T15:36:33;87.88;;;37.90;;
74939;SDS011;63505;45.226;37.908;2022-11-09T15:39:19;76.20;;;35.88;;
74939;SDS011;63505;45.226;37.908;2022-11-09T15:42:04;95.75;;;46.13;;
74939;SDS011;63505;45.226;37.908;2022-11-09T15:44:50;76.78;;;34.50;;
74939;SDS011;63505;45.226;37.908;2022-11-09T15:47:35;75.38;;;35.13;;
74939;SDS011;63505;45.226;37.908;2022-11-09T15:50:22;77.93;;;32.67;;
74939;SDS011;63505;45.226;37.908;2022-11-09T15:53:09;77.85;;;33.65;;
74939;SDS011;63505;45.226;37.908;2022-11-09T15:55:55;63.72;;;31.13;;
74939;SDS011;63505;45.226;37.908;2022-11-09T15:58:40;70.82;;;30.27;;
74939;SDS011;63505;45.226;37.908;2022-11-09T16:01:25;60.95;;;27.05;;
74939;SDS011;63505;45.226;37.908;2022-11-09T16:04:11;62.95;;;30.17;;
74939;SDS011;63505;45.226;37.908;2022-11-09T16:06:56;64.15;;;29.27;;
74939;SDS011;63505;45.226;37.908;2022-11-09T16:09:41;61.80;;;29.95;;
74939;SDS011;63505;45.226;37.908;2022-11-09T16:12:26;67.22;;;28.75;;
74939;SDS011;63505;45.226;37.908;2022-11-09T16:15:10;65.30;;;29.48;;
74939;SDS011;63505;45.226;37.908;2022-11-09T16:17:55;67.72;;;30.23;;
74939;SDS011;63505;45.226;37.908;2022-11-09T16:20:39;67.22;;;31.17;;
74939;SDS011;63505;45.226;37.908;2022-11-09T16:23:24;61.35;;;28.75;;
74939;SDS011;63505;45.226;37.908;2022-11-09T16:26:10;65.30;;;29.02;;
74939;SDS011;63505;45.226;37.908;2022-11-09T16:28:57;56.42;;;29.77;;
74939;SDS011;63505;45.226;37.908;2022-11-09T16:31:43;74.57;;;33.70;;
74939;SDS011;63505;45.226;37.908;2022-11-09T16:34:27;65.80;;;31.40;;
74939;SDS011;63505;45.226;37.908;2022-11-09T16:37:12;68.50;;;31.73;;
74939;SDS011;63505;45.226;37.908;2022-11-09T16:39:57;70.75;;;32.80;;
74939;SDS011;63505;45.226;37.908;2022-11-09T16:42:42;86.40;;;35.13;;
74939;SDS011;63505;45.226;37.908;2022-11-09T16:45:26;67.80;;;31.17;;
74939;SDS011;63505;45.226;37.908;2022-11-09T16:48:12;66.85;;;32.15;;
74939;SDS011;63505;45.226;37.908;2022-11-09T16:50:59;68.70;;;30.85;;
74939;SDS011;63505;45.226;37.908;2022-11-09T16:53:44;73.93;;;33.05;;
74939;SDS011;63505;45.226;37.908;2022-11-09T16:56:29;67.60;;;29.38;;
74939;SDS011;63505;45.226;37.908;2022-11-09T17:02:01;58.65;;;27.95;;
74939;SDS011;63505;45.226;37.908;2022-11-09T17:04:46;60.60;;;30.38;;
74939;SDS011;63505;45.226;37.908;2022-11-09T17:07:30;72.43;;;30.13;;
74939;SDS011;63505;45.226;37.908;2022-11-09T17:10:20;66.22;;;30.52;;
74939;SDS011;63505;45.226;37.908;2022-11-09T17:13:05;71.40;;;35.03;;
74939;SDS011;63505;45.226;37.908;2022-11-09T17:15:50;73.43;;;33.25;;
74939;SDS011;63505;45.226;37.908;2022-11-09T17:18:36;68.80;;;33.40;;
74939;SDS011;63505;45.226;37.908;2022-11-09T17:21:21;78.65;;;34.00;;
74939;SDS011;63505;45.226;37.908;2022-11-09T17:26:52;74.75;;;31.85;;
74939;SDS011;63505;45.226;37.908;2022-11-09T17:29:37;67.38;;;31.77;;
74939;SDS011;63505;45.226;37.908;2022-11-09T17:32:22;59.45;;;29.27;;
74939;SDS011;63505;45.226;37.908;2022-11-09T17:37:54;61.13;;;29.65;;
74939;SDS011;63505;45.226;37.908;2022-11-09T17:40:39;59.15;;;30.02;;
74939;SDS011;63505;45.226;37.908;2022-11-09T17:43:23;77.38;;;31.52;;
74939;SDS011;63505;45.226;37.908;2022-11-09T17:46:09;77.13;;;32.55;;
74939;SDS011;63505;45.226;37.908;2022-11-09T17:48:56;74.93;;;32.08;;
74939;SDS011;63505;45.226;37.908;2022-11-09T17:51:41;57.95;;;28.70;;
74939;SDS011;63505;45.226;37.908;2022-11-09T17:54:25;63.58;;;29.42;;
74939;SDS011;63505;45.226;37.908;2022-11-09T17:57:12;73.25;;;31.88;;
74939;SDS011;63505;45.226;37.908;2022-11-09T17:59:56;60.50;;;29.75;;
74939;SDS011;63505;45.226;37.908;2022-11-09T18:02:42;71.18;;;30.83;;
74939;SDS011;63505;45.226;37.908;2022-11-09T18:05:26;85.80;;;31.80;;